Time;durP1;ratioP1;P1;durP2;ratioP2;P2;SDS_P1;SDS_P2;PMS_P1;PMS_P2;Temp;Humidity;BMP_temperature;BMP_pressure;BME280_temperature;BME280_humidity;BME280_pressure;Samples;Min_cycle;Max_cycle;Signal;HPM_P1;HPM_P2
2023/02/18 00:01:23;;;;;;;1.07;0.97;;;13.50;99.90;;;;;;5002368;28;20180;-85
2023/02/18 00:03:49;;;;;;;1.50;1.00;;;13.60;99.90;;;;;;5011529;28;20183;-84
2023/02/18 00:06:20;;;;;;;0.88;0.88;;;13.50;99.90;;;;;;5001937;28;20171;-83
2023/02/18 00:08:47;;;;;;;1.10;1.00;;;13.40;99.90;;;;;;5000678;28;20179;-83
2023/02/18 00:11:13;;;;;;;1.40;0.90;;;13.40;99.90;;;;;;5000953;28;20179;-83
2023/02/18 00:13:38;;;;;;;1.15;1.05;;;13.40;99.90;;;;;;5014278;28;20184;-83
2023/02/18 00:16:07;;;;;;;1.00;0.90;;;13.30;99.90;;;;;;5002445;28;20717;-82
2023/02/18 00:18:33;;;;;;;1.10;1.00;;;13.20;99.90;;;;;;5000676;28;20198;-83
2023/02/18 00:20:58;;;;;;;2.63;1.20;;;13.30;99.90;;;;;;5000096;28;20683;-85
2023/02/18 00:23:24;;;;;;;0.90;0.90;;;13.40;99.90;;;;;;5003114;28;20283;-83
2023/02/18 00:26:04;;;;;;;0.95;0.80;;;13.20;99.90;;;;;;4998439;28;20188;-83
2023/02/18 00:28:29;;;;;;;0.90;0.90;;;13.40;99.90;;;;;;5018245;28;20183;-85
2023/02/18 00:30:55;;;;;;;1.50;0.90;;;13.70;99.90;;;;;;5007012;28;20652;-85
2023/02/18 00:33:21;;;;;;;1.10;1.00;;;13.20;99.90;;;;;;5000861;28;20194;-86
2023/02/18 00:35:46;;;;;;;1.83;1.10;;;13.20;99.90;;;;;;5003491;28;20698;-84
2023/02/18 00:38:12;;;;;;;1.20;0.93;;;13.30;99.90;;;;;;4999095;28;20469;-83
2023/02/18 00:40:39;;;;;;;0.93;0.90;;;13.00;99.90;;;;;;5003618;28;20188;-83
2023/02/18 00:43:04;;;;;;;0.90;0.90;;;13.70;99.90;;;;;;5001423;28;20540;-83
2023/02/18 00:45:30;;;;;;;0.87;0.83;;;13.40;99.90;;;;;;5006465;28;20215;-83
2023/02/18 00:47:55;;;;;;;1.33;0.90;;;13.40;99.90;;;;;;5001641;28;20294;-83
2023/02/18 00:50:21;;;;;;;1.20;1.10;;;13.60;99.90;;;;;;5000178;28;20246;-83
2023/02/18 00:52:47;;;;;;;1.15;1.05;;;13.10;99.90;;;;;;4997586;28;20190;-83
2023/02/18 00:55:13;;;;;;;1.80;1.10;;;13.30;99.90;;;;;;5002132;28;20308;-83
2023/02/18 00:57:38;;;;;;;1.63;1.10;;;13.40;99.90;;;;;;5003255;28;20227;-83
2023/02/18 01:00:05;;;;;;;1.20;1.10;;;13.30;99.90;;;;;;5002190;28;20547;-83
2023/02/18 01:02:31;;;;;;;1.10;1.00;;;13.10;99.90;;;;;;5002881;28;20703;-83
2023/02/18 01:04:56;;;;;;;1.10;1.00;;;13.30;99.90;;;;;;5003885;28;20282;-83
2023/02/18 01:07:22;;;;;;;2.20;1.30;;;13.50;99.90;;;;;;5002643;28;20867;-83
2023/02/18 01:09:47;;;;;;;1.10;1.00;;;13.60;99.90;;;;;;5001402;28;20242;-83
2023/02/18 01:12:13;;;;;;;1.00;0.90;;;13.40;99.90;;;;;;5005098;28;20202;-81
2023/02/18 01:14:39;;;;;;;1.27;0.90;;;13.40;99.90;;;;;;4999761;28;20230;-83
2023/02/18 01:17:04;;;;;;;0.80;0.80;;;13.30;99.90;;;;;;4994115;28;20211;-83
2023/02/18 01:19:30;;;;;;;1.03;0.93;;;13.30;99.90;;;;;;5017622;28;20231;-83
2023/02/18 01:21:55;;;;;;;1.30;1.20;;;13.70;99.90;;;;;;5002062;28;20183;-83
2023/02/18 01:24:21;;;;;;;1.30;1.20;;;13.10;99.90;;;;;;5001806;28;20195;-83
2023/02/18 01:26:46;;;;;;;1.23;1.13;;;13.10;99.90;;;;;;4998039;28;20218;-82
2023/02/18 01:29:12;;;;;;;2.57;1.10;;;13.00;99.90;;;;;;4998824;28;20285;-83
2023/02/18 01:31:37;;;;;;;1.10;1.00;;;13.10;99.90;;;;;;4997276;28;20186;-83
2023/02/18 01:34:03;;;;;;;1.30;1.20;;;13.60;99.90;;;;;;4991953;28;20194;-84
2023/02/18 01:36:29;;;;;;;1.30;1.13;;;13.20;99.90;;;;;;4999127;28;20217;-83
2023/02/18 01:38:54;;;;;;;1.60;1.50;;;13.30;99.90;;;;;;4995329;28;20183;-84
2023/02/18 01:41:20;;;;;;;2.77;1.20;;;13.30;99.90;;;;;;5004557;28;20531;-84
2023/02/18 01:43:45;;;;;;;1.80;1.37;;;13.50;99.90;;;;;;4998052;28;20271;-83
2023/02/18 01:46:15;;;;;;;1.20;1.10;;;13.10;99.90;;;;;;5000621;28;20662;-82
2023/02/18 01:48:54;;;;;;;2.38;1.50;;;13.10;99.90;;;;;;4995947;28;20188;-84
2023/02/18 01:51:26;;;;;;;1.40;1.30;;;13.20;99.90;;;;;;4992350;28;20869;-83
2023/02/18 01:54:10;;;;;;;1.65;1.20;;;13.60;99.90;;;;;;5011889;28;20183;-84
2023/02/18 01:56:47;;;;;;;1.45;1.35;;;12.60;99.90;;;;;;5000326;28;20209;-84
2023/02/18 01:59:19;;;;;;;1.52;1.42;;;13.00;99.90;;;;;;5003859;28;20207;-84
2023/02/18 02:01:45;;;;;;;1.20;1.10;;;13.10;99.90;;;;;;4994484;28;20182;-83
2023/02/18 02:04:11;;;;;;;2.37;1.30;;;12.40;99.90;;;;;;5013806;28;20179;-84
2023/02/18 02:06:37;;;;;;;1.60;1.50;;;12.80;99.90;;;;;;5002013;28;20466;-83
2023/02/18 02:09:05;;;;;;;1.30;1.20;;;12.90;99.90;;;;;;4997550;28;20211;-83
2023/02/18 02:12:09;;;;;;;2.20;1.55;;;13.10;99.90;;;;;;4996750;28;20199;-83
2023/02/18 02:14:46;;;;;;;1.67;1.58;;;12.80;99.90;;;;;;4997227;28;20210;-82
2023/02/18 02:17:40;;;;;;;1.77;1.50;;;12.70;99.90;;;;;;4995075;28;20206;-83
2023/02/18 02:20:30;;;;;;;1.42;1.33;;;12.80;99.90;;;;;;5014092;28;20719;-83
2023/02/18 02:23:14;;;;;;;1.60;1.30;;;12.60;99.90;;;;;;5011628;28;20326;-83
2023/02/18 02:26:01;;;;;;;1.50;1.40;;;12.60;99.90;;;;;;5016112;28;20190;-83
2023/02/18 02:28:50;;;;;;;1.65;1.45;;;12.80;99.90;;;;;;5010189;28;20183;-83
2023/02/18 02:31:34;;;;;;;1.50;1.40;;;12.90;99.90;;;;;;4998186;28;20186;-83
2023/02/18 02:34:40;;;;;;;1.70;1.60;;;12.90;99.90;;;;;;4995432;28;20191;-84
2023/02/18 02:37:34;;;;;;;1.58;1.48;;;12.80;99.90;;;;;;4993516;28;20210;-83
2023/02/18 02:40:19;;;;;;;1.75;1.50;;;12.70;99.90;;;;;;5022645;28;20179;-83
2023/02/18 02:43:09;;;;;;;1.77;1.38;;;13.10;99.90;;;;;;4994477;28;20229;-83
2023/02/18 02:45:47;;;;;;;1.75;1.50;;;13.00;99.90;;;;;;4996024;28;20210;-83
2023/02/18 02:48:24;;;;;;;2.28;1.58;;;13.00;99.90;;;;;;4997652;28;20207;-84
2023/02/18 02:50:59;;;;;;;1.70;1.60;;;13.00;99.90;;;;;;4999633;28;20241;-84
2023/02/18 02:53:28;;;;;;;1.70;1.60;;;13.10;99.90;;;;;;4990833;28;20190;-84
2023/02/18 02:55:55;;;;;;;1.90;1.60;;;13.00;99.90;;;;;;4997413;28;20249;-83
2023/02/18 02:58:21;;;;;;;1.70;1.50;;;13.00;99.90;;;;;;5000394;28;20702;-83
2023/02/18 03:01:21;;;;;;;1.52;1.40;;;13.40;99.90;;;;;;4996011;28;20188;-83
2023/02/18 03:04:16;;;;;;;1.58;1.48;;;12.90;99.90;;;;;;4996986;28;20179;-84
2023/02/18 03:07:13;;;;;;;1.42;1.33;;;13.00;99.90;;;;;;4999037;28;20230;-84
2023/02/18 03:10:06;;;;;;;1.40;1.30;;;12.90;99.90;;;;;;5007913;28;20950;-83
2023/02/18 03:12:57;;;;;;;2.03;1.90;;;13.10;99.90;;;;;;4990508;28;20183;-84
2023/02/18 03:15:26;;;;;;;1.35;1.25;;;12.90;99.90;;;;;;5005784;28;20196;-84
2023/02/18 03:18:05;;;;;;;1.77;1.30;;;12.80;99.90;;;;;;4992261;28;20683;-84
2023/02/18 03:20:35;;;;;;;1.50;1.40;;;12.80;99.90;;;;;;5015434;28;20642;-84
2023/02/18 03:23:05;;;;;;;5.22;1.55;;;13.10;99.90;;;;;;5002266;28;20246;-84
2023/02/18 03:25:35;;;;;;;1.40;1.30;;;12.80;99.90;;;;;;4999834;28;20273;-83
2023/02/18 03:28:12;;;;;;;1.30;1.13;;;13.30;99.90;;;;;;4999208;28;20231;-84
2023/02/18 03:30:46;;;;;;;2.67;1.48;;;13.40;99.90;;;;;;5019060;28;20186;-84
2023/02/18 03:33:17;;;;;;;1.30;1.20;;;13.10;99.90;;;;;;4992556;28;20180;-84
2023/02/18 03:35:44;;;;;;;2.80;1.40;;;12.80;99.90;;;;;;5007616;28;20690;-83
2023/02/18 03:38:24;;;;;;;1.40;1.30;;;12.90;99.90;;;;;;4994009;28;20222;-84
2023/02/18 03:40:50;;;;;;;2.90;1.30;;;12.80;99.90;;;;;;5000351;28;20643;-84
2023/02/18 03:43:15;;;;;;;1.20;1.10;;;12.80;99.90;;;;;;5002459;28;20186;-84
2023/02/18 03:45:41;;;;;;;1.20;1.00;;;12.90;99.90;;;;;;5006707;28;20183;-84
2023/02/18 03:48:07;;;;;;;2.20;1.27;;;12.50;99.90;;;;;;5001263;28;20203;-84
2023/02/18 03:50:32;;;;;;;1.30;1.20;;;12.70;99.90;;;;;;5012552;28;20237;-84
2023/02/18 03:52:58;;;;;;;1.57;1.23;;;12.40;99.90;;;;;;4999448;28;20446;-83
2023/02/18 03:55:23;;;;;;;2.03;1.47;;;12.50;99.90;;;;;;5008930;28;20284;-84
2023/02/18 03:57:49;;;;;;;1.50;1.40;;;12.50;99.90;;;;;;5006693;28;20203;-84
2023/02/18 04:00:15;;;;;;;1.50;1.40;;;12.30;99.90;;;;;;4998078;28;20187;-84
2023/02/18 04:02:41;;;;;;;1.63;1.53;;;12.40;99.90;;;;;;5018269;28;20190;-82
2023/02/18 04:05:07;;;;;;;1.27;1.17;;;12.20;99.90;;;;;;5005324;28;20273;-83
2023/02/18 04:07:32;;;;;;;3.10;1.67;;;12.20;99.90;;;;;;5001037;28;20545;-84
2023/02/18 04:09:58;;;;;;;1.57;1.47;;;12.60;99.90;;;;;;4999289;28;20197;-83
2023/02/18 04:12:23;;;;;;;8.70;1.80;;;12.70;99.90;;;;;;5004410;28;20465;-84
2023/02/18 04:14:49;;;;;;;1.53;1.43;;;12.60;99.90;;;;;;5006287;28;20211;-84
2023/02/18 04:17:14;;;;;;;2.93;1.63;;;12.40;99.90;;;;;;5021071;28;20284;-84
2023/02/18 04:19:40;;;;;;;1.37;1.27;;;12.40;99.90;;;;;;4999148;28;20544;-83
2023/02/18 04:22:05;;;;;;;1.60;1.33;;;12.60;99.90;;;;;;4997187;28;20199;-84
2023/02/18 04:24:31;;;;;;;2.13;1.50;;;12.80;99.90;;;;;;5003990;28;20190;-84
2023/02/18 04:26:57;;;;;;;1.43;1.33;;;12.40;99.90;;;;;;5000413;28;20274;-83
2023/02/18 04:29:22;;;;;;;2.03;1.47;;;12.20;99.90;;;;;;5003214;28;20214;-84
2023/02/18 04:31:48;;;;;;;2.37;1.30;;;12.30;99.90;;;;;;4998650;28;20768;-83
2023/02/18 04:34:13;;;;;;;1.57;1.47;;;12.40;99.90;;;;;;4995742;28;20310;-84
2023/02/18 04:36:39;;;;;;;1.73;1.20;;;12.40;99.90;;;;;;4995495;28;20270;-84
2023/02/18 04:39:04;;;;;;;2.13;1.60;;;12.60;99.90;;;;;;4999453;28;20275;-84
2023/02/18 04:41:30;;;;;;;2.43;1.50;;;12.10;99.90;;;;;;5003536;28;20207;-84
2023/02/18 04:43:55;;;;;;;3.03;2.77;;;12.50;99.90;;;;;;5000258;28;20534;-84
2023/02/18 04:46:21;;;;;;;2.03;1.40;;;12.30;99.90;;;;;;4998223;28;20211;-84
2023/02/18 04:48:46;;;;;;;1.47;1.37;;;12.30;99.90;;;;;;4998554;28;20189;-84
2023/02/18 04:51:12;;;;;;;1.47;1.37;;;12.30;99.90;;;;;;5000939;28;20279;-84
2023/02/18 04:53:37;;;;;;;1.50;1.40;;;12.00;99.90;;;;;;5003903;28;20346;-84
2023/02/18 04:56:03;;;;;;;2.10;1.90;;;12.20;99.90;;;;;;4999162;28;20260;-83
2023/02/18 04:58:29;;;;;;;1.30;1.20;;;12.00;99.90;;;;;;5001114;28;20189;-83
2023/02/18 05:01:02;;;;;;;1.60;1.50;;;11.60;99.90;;;;;;4998203;28;20964;-83
2023/02/18 05:03:28;;;;;;;1.42;1.25;;;12.40;99.90;;;;;;5000686;28;20187;-84
2023/02/18 05:05:54;;;;;;;2.67;1.70;;;12.20;99.90;;;;;;5006665;28;20215;-84
2023/02/18 05:08:20;;;;;;;1.45;1.33;;;12.00;99.90;;;;;;5001748;28;20207;-83
2023/02/18 05:10:45;;;;;;;1.70;1.60;;;11.90;99.90;;;;;;4997942;28;20194;-84
2023/02/18 05:13:11;;;;;;;1.93;1.53;;;12.00;99.90;;;;;;5005333;28;20276;-82
2023/02/18 05:15:37;;;;;;;1.53;1.43;;;11.80;99.90;;;;;;5000458;28;20210;-82
2023/02/18 05:18:02;;;;;;;1.60;1.43;;;13.10;99.90;;;;;;5000321;28;20705;-83
2023/02/18 05:20:28;;;;;;;1.87;1.33;;;12.20;99.90;;;;;;5001740;28;20194;-82
2023/02/18 05:22:54;;;;;;;1.40;1.27;;;12.00;99.90;;;;;;5000420;28;20182;-83
2023/02/18 05:25:20;;;;;;;2.50;1.50;;;11.80;99.90;;;;;;5000194;28;20248;-83
2023/02/18 05:27:45;;;;;;;1.30;1.20;;;12.10;99.90;;;;;;4997044;28;20469;-84
2023/02/18 05:30:11;;;;;;;1.27;1.17;;;12.00;99.90;;;;;;5005793;28;20198;-83
2023/02/18 05:32:36;;;;;;;1.30;1.20;;;12.00;99.90;;;;;;5004872;28;20196;-84
2023/02/18 05:35:02;;;;;;;1.53;1.30;;;11.90;99.90;;;;;;4997009;28;20465;-83
2023/02/18 05:37:27;;;;;;;1.37;1.27;;;11.70;99.90;;;;;;4995420;28;20250;-83
2023/02/18 05:39:53;;;;;;;1.67;1.57;;;12.30;99.90;;;;;;5005759;28;20232;-83
2023/02/18 05:42:19;;;;;;;2.17;1.97;;;11.80;99.90;;;;;;5000640;28;20187;-83
2023/02/18 05:44:45;;;;;;;2.28;1.50;;;11.90;99.90;;;;;;5004042;28;20193;-83
2023/02/18 05:47:11;;;;;;;2.73;2.53;;;12.20;99.90;;;;;;4995227;28;20218;-84
2023/02/18 05:49:38;;;;;;;1.67;1.58;;;12.00;99.90;;;;;;5015568;28;20188;-84
2023/02/18 05:52:04;;;;;;;2.08;1.88;;;11.70;99.90;;;;;;4998984;28;20194;-83
2023/02/18 05:54:30;;;;;;;3.23;1.90;;;11.80;99.90;;;;;;5014186;28;20219;-83
2023/02/18 05:56:56;;;;;;;2.17;1.73;;;11.70;99.90;;;;;;5001788;28;20972;-83
2023/02/18 05:59:23;;;;;;;1.77;1.60;;;11.60;99.90;;;;;;5001395;28;20430;-83
2023/02/18 06:01:49;;;;;;;1.85;1.70;;;11.80;99.90;;;;;;4998268;28;20185;-82
2023/02/18 06:04:15;;;;;;;1.80;1.70;;;11.50;99.90;;;;;;5004289;28;20256;-83
2023/02/18 06:06:41;;;;;;;2.17;1.90;;;12.00;99.90;;;;;;5001356;28;20528;-82
2023/02/18 06:09:08;;;;;;;2.40;2.00;;;11.60;99.90;;;;;;4993691;28;20471;-83
2023/02/18 06:11:34;;;;;;;2.60;1.77;;;11.50;99.90;;;;;;4994193;28;20252;-84
2023/02/18 06:13:59;;;;;;;1.92;1.70;;;11.50;99.90;;;;;;4997460;28;20182;-83
2023/02/18 06:16:25;;;;;;;3.63;2.00;;;11.70;99.90;;;;;;5000711;28;20220;-84
2023/02/18 06:18:51;;;;;;;1.63;1.50;;;11.40;99.90;;;;;;4991473;28;20188;-84
2023/02/18 06:21:17;;;;;;;1.87;1.70;;;11.30;99.90;;;;;;4997284;28;20186;-84
2023/02/18 06:23:42;;;;;;;1.90;1.80;;;11.30;99.90;;;;;;4992589;28;20182;-84
2023/02/18 06:26:08;;;;;;;1.60;1.50;;;11.40;99.90;;;;;;4992166;28;20657;-84
2023/02/18 06:28:34;;;;;;;2.77;2.53;;;11.40;99.90;;;;;;5004323;28;20280;-84
2023/02/18 06:31:00;;;;;;;2.70;2.05;;;11.40;99.90;;;;;;4994148;28;20215;-84
2023/02/18 06:33:25;;;;;;;2.27;1.87;;;11.10;99.90;;;;;;4991226;28;20221;-83
2023/02/18 06:36:05;;;;;;;2.47;2.27;;;11.20;99.90;;;;;;4996540;28;20236;-84
2023/02/18 06:38:31;;;;;;;2.50;2.30;;;11.10;99.90;;;;;;4991076;28;20242;-84
2023/02/18 06:40:56;;;;;;;4.00;2.00;;;11.40;99.90;;;;;;4993384;28;20191;-84
2023/02/18 06:43:22;;;;;;;2.80;2.13;;;11.20;99.90;;;;;;5001015;28;20813;-84
2023/02/18 06:45:48;;;;;;;2.63;2.43;;;11.30;99.90;;;;;;4988867;28;20202;-84
2023/02/18 06:48:13;;;;;;;2.47;2.27;;;11.80;99.90;;;;;;4991711;28;20217;-81
2023/02/18 06:50:40;;;;;;;3.30;2.03;;;11.40;99.90;;;;;;4995418;28;20200;-84
2023/02/18 06:53:05;;;;;;;2.78;2.58;;;11.60;99.90;;;;;;4990718;28;20201;-83
2023/02/18 06:55:31;;;;;;;2.13;1.93;;;11.70;99.90;;;;;;4996259;28;20219;-83
2023/02/18 06:57:56;;;;;;;2.63;2.40;;;11.50;99.90;;;;;;4994914;28;20207;-84
2023/02/18 07:00:22;;;;;;;4.20;2.50;;;11.80;99.90;;;;;;4995885;28;20200;-84
2023/02/18 07:02:48;;;;;;;3.00;2.70;;;11.60;99.90;;;;;;4991637;28;20187;-83
2023/02/18 07:05:14;;;;;;;2.60;2.40;;;11.70;99.90;;;;;;4991071;28;20714;-83
2023/02/18 07:07:39;;;;;;;3.77;2.37;;;11.70;99.90;;;;;;4989601;28;20528;-83
2023/02/18 07:10:05;;;;;;;4.90;2.43;;;11.80;99.90;;;;;;5000929;28;20182;-83
2023/02/18 07:12:31;;;;;;;4.13;2.60;;;12.00;99.90;;;;;;4993959;28;20219;-85
2023/02/18 07:14:57;;;;;;;3.53;2.67;;;12.30;99.90;;;;;;5000896;28;20308;-87
2023/02/18 07:17:22;;;;;;;2.03;1.77;;;12.50;99.90;;;;;;4999867;28;20472;-83
2023/02/18 07:19:48;;;;;;;1.90;1.43;;;12.00;99.90;;;;;;4996036;28;20182;-82
2023/02/18 07:22:13;;;;;;;3.20;2.90;;;12.20;99.90;;;;;;4991051;28;20184;-86
2023/02/18 07:24:39;;;;;;;2.30;2.10;;;12.20;99.90;;;;;;5006758;28;20238;-86
2023/02/18 07:27:04;;;;;;;1.47;1.37;;;12.40;99.90;;;;;;5008544;28;20206;-86
2023/02/18 07:29:30;;;;;;;1.50;1.30;;;12.90;99.90;;;;;;5008447;28;20671;-85
2023/02/18 07:31:55;;;;;;;1.90;1.77;;;12.50;99.90;;;;;;4999946;28;20230;-87
2023/02/18 07:34:21;;;;;;;2.17;2.07;;;12.90;99.90;;;;;;4995553;28;20715;-86
2023/02/18 07:36:47;;;;;;;1.80;1.70;;;12.80;99.90;;;;;;4992800;28;20238;-86
2023/02/18 07:39:12;;;;;;;1.47;1.37;;;12.60;99.90;;;;;;5000502;28;21013;-86
2023/02/18 07:41:38;;;;;;;1.50;1.40;;;12.70;99.90;;;;;;5005672;28;20202;-92
2023/02/18 07:44:04;;;;;;;1.70;1.30;;;12.90;99.90;;;;;;5009263;28;20186;-89
2023/02/18 07:46:29;;;;;;;1.90;1.80;;;12.90;99.90;;;;;;4999063;28;20199;-88
2023/02/18 07:49:00;;;;;;;2.37;1.33;;;12.90;99.90;;;;;;5013428;28;20230;-88
2023/02/18 07:51:26;;;;;;;2.20;1.98;;;13.10;99.90;;;;;;5006614;28;20669;-90
2023/02/18 07:53:51;;;;;;;1.80;1.70;;;13.10;99.90;;;;;;5002332;28;20271;-88
2023/02/18 07:56:17;;;;;;;1.90;1.70;;;13.50;99.90;;;;;;5006890;28;20208;-88
2023/02/18 07:58:42;;;;;;;2.00;1.80;;;13.20;99.90;;;;;;5002515;28;20183;-92
2023/02/18 08:01:13;;;;;;;2.40;1.53;;;13.30;99.90;;;;;;5001391;28;20275;-87
2023/02/18 08:03:38;;;;;;;1.83;1.65;;;13.40;99.90;;;;;;4997037;28;20196;-86
2023/02/18 08:06:05;;;;;;;1.60;1.50;;;13.60;99.90;;;;;;4992304;28;20180;-87
2023/02/18 08:08:32;;;;;;;2.00;1.80;;;13.70;99.90;;;;;;5012561;28;20612;-87
2023/02/18 08:11:05;;;;;;;1.80;1.20;;;13.60;99.90;;;;;;5013049;28;20187;-87
2023/02/18 08:13:31;;;;;;;4.28;1.98;;;13.30;99.90;;;;;;5009994;28;20187;-86
2023/02/18 08:15:57;;;;;;;1.53;1.43;;;13.70;99.90;;;;;;5001795;28;20582;-87
2023/02/18 08:18:24;;;;;;;1.77;1.67;;;14.10;99.90;;;;;;5000285;28;20213;-90
2023/02/18 08:20:50;;;;;;;3.72;1.83;;;13.50;99.90;;;;;;5005823;28;20203;-87
2023/02/18 08:23:19;;;;;;;2.65;2.08;;;14.20;99.90;;;;;;5005136;28;20642;-87
2023/02/18 08:25:46;;;;;;;1.75;1.65;;;13.80;99.90;;;;;;5002296;28;20183;-87
2023/02/18 08:28:12;;;;;;;2.20;1.42;;;13.60;99.90;;;;;;5013199;28;20317;-87
2023/02/18 08:30:37;;;;;;;1.70;1.60;;;13.60;99.90;;;;;;4997884;28;20195;-87
2023/02/18 08:33:03;;;;;;;2.90;1.63;;;13.90;99.90;;;;;;4996235;28;20271;-87
2023/02/18 08:35:28;;;;;;;1.67;1.57;;;14.10;99.90;;;;;;5001466;28;20207;-89
2023/02/18 08:37:54;;;;;;;2.03;1.60;;;13.90;99.90;;;;;;4998816;28;20219;-88
2023/02/18 08:40:20;;;;;;;2.03;1.80;;;14.20;99.90;;;;;;5003943;28;20182;-90
2023/02/18 08:42:45;;;;;;;1.80;1.60;;;14.20;99.90;;;;;;5003037;28;20184;-89
2023/02/18 08:45:11;;;;;;;3.07;1.50;;;14.70;99.90;;;;;;4996723;28;20286;-90
2023/02/18 08:47:36;;;;;;;2.33;1.40;;;14.10;99.90;;;;;;5003179;28;20257;-90
2023/02/18 08:50:03;;;;;;;1.90;1.50;;;14.30;99.90;;;;;;5006414;28;20498;-89
2023/02/18 08:52:28;;;;;;;1.38;1.27;;;14.10;99.90;;;;;;4997537;28;20476;-90
2023/02/18 08:54:54;;;;;;;1.37;1.27;;;14.40;99.90;;;;;;5014751;28;20202;-88
2023/02/18 08:57:19;;;;;;;3.00;1.60;;;14.50;99.90;;;;;;5003750;28;20290;-89
2023/02/18 08:59:45;;;;;;;3.10;1.87;;;14.20;99.90;;;;;;5002080;28;20187;-88
2023/02/18 09:02:12;;;;;;;1.90;1.43;;;15.10;99.90;;;;;;5003838;28;20179;-87
2023/02/18 09:04:38;;;;;;;1.40;1.30;;;14.50;99.90;;;;;;5000133;28;20214;-89
2023/02/18 09:07:03;;;;;;;1.00;0.90;;;14.60;99.90;;;;;;5000667;28;20219;-88
2023/02/18 09:09:29;;;;;;;1.63;1.10;;;14.50;99.90;;;;;;4990463;28;20192;-86
2023/02/18 09:11:55;;;;;;;1.40;1.20;;;14.70;99.90;;;;;;4995352;28;20278;-87
2023/02/18 09:14:20;;;;;;;1.67;1.23;;;14.80;99.80;;;;;;5007508;28;20188;-86
2023/02/18 09:16:46;;;;;;;1.63;1.43;;;15.00;99.70;;;;;;4990111;28;20881;-89
2023/02/18 09:19:11;;;;;;;1.30;1.20;;;14.80;99.50;;;;;;4999889;28;20604;-88
2023/02/18 09:21:37;;;;;;;1.43;1.33;;;16.50;99.90;;;;;;5012637;28;20191;-89
2023/02/18 09:24:03;;;;;;;1.90;1.57;;;14.90;99.20;;;;;;5009196;28;20871;-89
2023/02/18 09:26:28;;;;;;;2.80;1.50;;;15.00;99.10;;;;;;4983096;28;20212;-79
2023/02/18 09:28:55;;;;;;;1.40;1.30;;;15.60;99.10;;;;;;4978301;28;20191;-78
2023/02/18 09:31:27;;;;;;;1.77;1.65;;;15.30;98.30;;;;;;4998253;28;20235;-79
2023/02/18 09:33:59;;;;;;;1.95;1.70;;;15.30;98.30;;;;;;4996384;28;20204;-79
2023/02/18 09:36:25;;;;;;;1.48;1.27;;;17.00;99.50;;;;;;5008135;28;20220;-79
2023/02/18 09:38:54;;;;;;;2.00;1.67;;;15.60;98.10;;;;;;5005621;28;20647;-79
2023/02/18 09:41:44;;;;;;;2.17;1.15;;;15.10;98.20;;;;;;4996001;28;20190;-79
2023/02/18 09:44:18;;;;;;;1.40;1.30;;;15.40;97.80;;;;;;5001966;28;20266;-79
2023/02/18 09:46:52;;;;;;;6.47;1.92;;;15.40;97.90;;;;;;4999809;28;20205;-79
2023/02/18 09:49:23;;;;;;;2.20;1.17;;;15.40;97.60;;;;;;4999971;28;20705;-79
2023/02/18 09:51:50;;;;;;;2.30;1.40;;;15.70;98.00;;;;;;4995115;28;20647;-79
2023/02/18 09:54:18;;;;;;;1.63;1.35;;;15.70;98.10;;;;;;4998093;28;20203;-79
2023/02/18 09:56:45;;;;;;;5.93;1.50;;;15.20;98.20;;;;;;4997170;28;20216;-78
2023/02/18 09:59:19;;;;;;;1.58;1.48;;;14.90;97.90;;;;;;4990715;28;20183;-79
2023/02/18 10:01:47;;;;;;;2.65;1.50;;;15.10;98.20;;;;;;4995424;28;20659;-79
2023/02/18 10:04:33;;;;;;;3.00;1.45;;;15.40;98.30;;;;;;4994465;28;20183;-79
2023/02/18 10:07:02;;;;;;;1.55;1.10;;;15.60;98.30;;;;;;4995842;28;20218;-79
2023/02/18 10:09:33;;;;;;;1.80;1.52;;;15.20;98.30;;;;;;4997454;28;20263;-80
2023/02/18 10:12:20;;;;;;;2.35;1.30;;;15.20;98.40;;;;;;5000147;28;20186;-80
2023/02/18 10:14:50;;;;;;;3.55;1.27;;;14.80;97.80;;;;;;5000444;28;20683;-79
2023/02/18 10:17:17;;;;;;;2.55;1.42;;;15.00;97.60;;;;;;4997761;28;20213;-79
2023/02/18 10:19:44;;;;;;;4.53;1.70;;;15.10;98.00;;;;;;4999390;28;20179;-79
2023/02/18 10:22:12;;;;;;;1.42;1.33;;;15.30;97.90;;;;;;4990137;28;20183;-79
2023/02/18 10:24:41;;;;;;;1.30;1.20;;;15.30;97.90;;;;;;4988249;28;20190;-78
2023/02/18 10:27:08;;;;;;;4.90;1.52;;;15.30;98.00;;;;;;4992541;28;20320;-78
2023/02/18 10:29:35;;;;;;;3.67;1.40;;;15.40;97.80;;;;;;4992351;28;20198;-78
2023/02/18 10:32:20;;;;;;;1.20;1.10;;;15.40;97.70;;;;;;4990420;28;20233;-78
2023/02/18 10:34:50;;;;;;;1.73;1.20;;;15.60;97.00;;;;;;4989251;28;20246;-78
2023/02/18 10:37:34;;;;;;;2.03;1.30;;;15.80;97.10;;;;;;4987969;28;20219;-78
2023/02/18 10:40:08;;;;;;;1.50;1.40;;;15.50;97.30;;;;;;4992339;28;20282;-78
2023/02/18 10:43:12;;;;;;;1.80;1.17;;;15.10;97.00;;;;;;4989048;28;20657;-78
2023/02/18 10:45:47;;;;;;;2.20;2.00;;;15.50;97.20;;;;;;4990000;28;20221;-77
2023/02/18 10:48:50;;;;;;;2.30;2.10;;;15.70;97.50;;;;;;5003400;28;20206;-78
2023/02/18 10:51:21;;;;;;;1.70;1.40;;;15.50;97.10;;;;;;4993871;28;20202;-78
2023/02/18 10:53:49;;;;;;;1.42;1.30;;;15.30;96.90;;;;;;4992102;28;20184;-78
2023/02/18 10:56:51;;;;;;;3.47;1.52;;;15.60;96.70;;;;;;4991397;28;20234;-78
2023/02/18 10:59:23;;;;;;;4.40;1.33;;;15.20;96.60;;;;;;4990857;28;20191;-77
2023/02/18 11:02:23;;;;;;;1.10;1.00;;;15.70;96.80;;;;;;5002431;28;20652;-77
2023/02/18 11:04:48;;;;;;;1.17;1.08;;;15.60;96.40;;;;;;4972665;28;20294;-78
2023/02/18 11:07:30;;;;;;;2.63;1.80;;;15.60;96.50;;;;;;4988848;28;20294;-78
2023/02/18 11:10:00;;;;;;;1.10;1.10;;;15.60;96.50;;;;;;4990987;28;20439;-78
2023/02/18 11:12:44;;;;;;;1.70;1.00;;;15.70;96.20;;;;;;4988895;28;20604;-77
2023/02/18 11:15:13;;;;;;;2.38;1.50;;;16.40;96.70;;;;;;4987801;28;20734;-82
2023/02/18 11:17:39;;;;;;;1.67;1.20;;;15.70;96.10;;;;;;4989717;28;20738;-78
2023/02/18 11:20:29;;;;;;;1.67;1.38;;;16.30;96.20;;;;;;4991363;28;20183;-79
2023/02/18 11:23:06;;;;;;;1.38;1.20;;;16.00;96.00;;;;;;4990116;28;20211;-78
2023/02/18 11:25:34;;;;;;;2.70;1.17;;;16.00;95.80;;;;;;4990764;28;20187;-78
2023/02/18 11:28:07;;;;;;;2.75;1.20;;;15.80;95.60;;;;;;4990655;28;20211;-78
2023/02/18 11:30:41;;;;;;;2.83;1.75;;;15.90;95.70;;;;;;4991226;28;20241;-78
2023/02/18 11:33:19;;;;;;;2.00;1.10;;;16.20;95.60;;;;;;4989706;28;20201;-78
2023/02/18 11:35:51;;;;;;;2.17;1.52;;;15.90;95.20;;;;;;4991248;28;20204;-78
2023/02/18 11:38:27;;;;;;;1.25;1.15;;;16.50;94.90;;;;;;4987251;28;20309;-78
2023/02/18 11:40:56;;;;;;;2.75;1.77;;;15.90;94.80;;;;;;4988161;28;20198;-77
2023/02/18 11:43:29;;;;;;;2.75;1.00;;;16.00;94.80;;;;;;4993184;28;20659;-78
2023/02/18 11:46:15;;;;;;;1.85;1.20;;;16.10;94.90;;;;;;4996728;28;20195;-77
2023/02/18 11:48:41;;;;;;;2.15;1.40;;;15.90;94.70;;;;;;4997049;28;20278;-79
2023/02/18 11:51:24;;;;;;;1.63;1.00;;;16.30;94.80;;;;;;5005775;28;20334;-79
2023/02/18 11:53:53;;;;;;;1.95;1.13;;;16.10;94.50;;;;;;4988857;28;20434;-84
2023/02/18 11:56:19;;;;;;;1.20;1.10;;;15.80;94.10;;;;;;4994804;28;20203;-83
2023/02/18 11:58:47;;;;;;;1.80;1.70;;;16.20;94.00;;;;;;5000109;28;20295;-87
2023/02/18 12:01:36;;;;;;;7.25;3.03;;;16.30;94.10;;;;;;5013581;28;20179;-87
2023/02/18 12:04:16;;;;;;;2.38;2.17;;;16.10;93.80;;;;;;4998614;28;20176;-88
2023/02/18 12:07:06;;;;;;;4.25;2.35;;;16.20;93.90;;;;;;5004441;28;20309;-86
2023/02/18 12:09:43;;;;;;;2.97;1.35;;;16.50;94.20;;;;;;5001081;28;20273;-85
2023/02/18 12:12:16;;;;;;;1.80;1.20;;;16.40;93.70;;;;;;5015488;28;20213;-85
2023/02/18 12:14:43;;;;;;;4.20;1.35;;;16.70;93.20;;;;;;5003255;28;20211;-86
2023/02/18 12:17:33;;;;;;;1.63;1.52;;;16.60;93.10;;;;;;4998965;28;20203;-85
2023/02/18 12:20:37;;;;;;;3.72;1.30;;;16.40;93.00;;;;;;4999413;28;20249;-85
2023/02/18 12:23:13;;;;;;;1.88;1.67;;;16.50;92.60;;;;;;5012859;28;20179;-85
2023/02/18 12:26:00;;;;;;;7.30;1.92;;;16.90;92.80;;;;;;5000756;28;20559;-85
2023/02/18 12:28:33;;;;;;;2.67;1.10;;;16.80;92.40;;;;;;5000453;28;20269;-86
2023/02/18 12:31:14;;;;;;;5.30;1.45;;;16.90;92.40;;;;;;4998406;28;20542;-85
2023/02/18 12:33:57;;;;;;;1.80;1.50;;;16.90;92.50;;;;;;4998749;28;20183;-85
2023/02/18 12:36:29;;;;;;;2.95;1.30;;;17.00;92.00;;;;;;5000098;28;20297;-87
2023/02/18 12:39:16;;;;;;;1.13;1.10;;;16.70;91.70;;;;;;4998873;28;20183;-87
2023/02/18 12:42:02;;;;;;;1.73;1.30;;;16.80;91.80;;;;;;5006017;28;20179;-84
2023/02/18 12:44:33;;;;;;;3.65;1.60;;;16.60;91.70;;;;;;5015033;28;20186;-86
2023/02/18 12:47:23;;;;;;;1.65;1.55;;;16.80;91.90;;;;;;4999527;28;20203;-88
2023/02/18 12:50:03;;;;;;;1.73;1.60;;;16.90;91.40;;;;;;5002669;28;20216;-87
2023/02/18 12:52:52;;;;;;;2.35;1.58;;;17.10;91.50;;;;;;5026874;28;20199;-85
2023/02/18 12:55:56;;;;;;;2.60;1.52;;;16.60;91.30;;;;;;5014783;28;20230;-86
2023/02/18 12:58:55;;;;;;;2.58;1.50;;;16.70;91.40;;;;;;4997911;28;20199;-88
2023/02/18 13:01:36;;;;;;;1.58;1.48;;;16.70;91.00;;;;;;4998169;28;20214;-87
2023/02/18 13:04:09;;;;;;;2.22;1.92;;;16.70;90.90;;;;;;5002835;28;20185;-87
2023/02/18 13:07:11;;;;;;;1.80;1.70;;;16.60;90.80;;;;;;5018722;28;20209;-85